Latest Weather Observations for Mangrove Mountain

IDN60801

Issued at 5:35 pm EST Friday 25 April 2014 (issued every 30 minutes, with the page automatically refreshed every 10 minutes)

About weather observations | Map of weather stations | Latest weather observations for NSW | Other Formats
Station Details ID: 061375 Name: MANGROVE MOUNTAIN AWS Lat: -33.29 Lon: 151.21 Height: 305.0 m
Data from the previous 72 hours. | See also: Recent months at Mangrove Mountain
Date/Time
EST
Temp
°C
App
Temp
°C
Dew
Point
Rel
Hum
%
Delta-T
°C
Wind Press
QNH
hPa
Press
MSL
hPa
Rain
since 9 am
mm
Dir
 
Spd
km/h
Gust
km/h
Spd
kts
Gust
kts
25/05:30pm 15.0 15.5 11.6 80 1.9 ENE 0 2 0 1 - - 0.4
25/05:00pm 17.2 17.0 11.9 71 2.9 NE 4 6 2 3 - - 0.4
25/04:30pm 18.3 17.6 12.1 67 3.5 NNW 7 15 4 8 - - 0.4
25/04:00pm 19.0 18.2 11.8 63 4.0 N 7 13 4 7 - - 0.4
25/03:30pm 19.5 19.4 13.2 67 3.6 N 6 7 3 4 - - 0.4
25/03:00pm 19.1 18.8 13.3 69 3.3 NNW 7 11 4 6 - - 0.4
25/02:30pm 18.9 19.3 14.8 77 2.4 NW 6 9 3 5 - - 0.4
25/02:00pm 17.8 18.1 13.5 76 2.5 NNE 4 9 2 5 - - 0.4
25/01:30pm 16.6 16.0 13.5 82 1.8 NE 9 13 5 7 - - 0.4
25/01:00pm 17.2 16.7 12.7 75 2.5 NNE 7 15 4 8 - - 0.4
25/12:30pm 17.3 17.4 14.0 81 1.9 ENE 6 9 3 5 - - 0.0
25/12:00pm 16.9 16.5 14.0 83 1.7 NE 9 13 5 7 - - 0.0
25/11:30am 15.6 15.1 13.8 89 1.0 E 9 19 5 10 - - 0.0
25/11:00am 15.8 16.0 14.8 94 0.6 E 7 11 4 6 - - 0.0
25/10:30am 15.9 17.0 15.6 98 0.2 ESE 4 6 2 3 - - 0.0
25/10:00am 15.7 16.3 15.2 97 0.3 ESE 6 9 3 5 - - 0.0
25/09:30am 15.6 16.1 15.0 96 0.4 WSW 6 11 3 6 - - 0.0
25/09:00am 15.8 16.2 15.2 96 0.4 ESE 7 13 4 7 - - 1.4
25/08:30am 15.8 16.7 15.2 96 0.4 E 4 11 2 6 - - 1.4
25/08:00am 16.0 17.0 15.4 96 0.4 S 4 11 2 6 - - 1.2
25/07:30am 15.9 16.9 15.4 97 0.3 S 4 7 2 4 - - 1.2
25/07:00am 15.8 16.5 15.5 98 0.2 SSE 6 9 3 5 - - 1.2
25/06:30am 15.7 16.3 15.2 97 0.3 SSE 6 9 3 5 - - 1.2
25/06:00am 15.7 16.2 15.1 96 0.4 SSE 6 9 3 5 - - 1.2
25/05:30am 16.0 16.6 15.4 96 0.4 ESE 6 11 3 6 - - 1.2
25/05:00am 16.4 17.0 15.9 97 0.3 E 7 15 4 8 - - 1.2
25/04:30am 16.7 17.6 16.2 97 0.3 SE 6 13 3 7 - - 0.6
25/04:00am 16.8 18.0 16.0 95 0.5 SE 4 6 2 3 - - 0.0
25/03:30am 17.0 17.7 16.0 94 0.6 SSE 7 11 4 6 - - 0.0
25/03:00am 17.1 17.8 16.1 94 0.6 ESE 7 13 4 7 - - 0.0
25/02:30am 17.5 18.3 16.4 93 0.7 ESE 7 11 4 6 - - 0.0
25/02:00am 17.8 18.5 16.0 89 1.1 SE 7 11 4 6 - - 0.0
25/01:30am 17.9 18.5 15.9 88 1.2 SE 7 13 4 7 - - 0.0
25/01:00am 18.3 18.7 16.3 88 1.2 SE 9 19 5 10 - - 0.0
25/12:30am 17.8 18.0 15.8 88 1.2 SSE 9 20 5 11 - - 0.0
25/12:00am 17.1 16.7 14.2 83 1.7 S 9 15 5 8 - - 0.0
 
Date/Time
EST
Temp
°C
App
Temp
°C
Dew
Point
Rel
Hum
%
Delta-T
°C
Wind Press
QNH
hPa
Press
MSL
hPa
Rain
since 9 am
mm
Dir
 
Spd
km/h
Gust
km/h
Spd
kts
Gust
kts
24/11:30pm 17.2 16.1 12.1 72 2.8 S 9 13 5 7 - - 0.0
24/11:00pm 17.9 16.3 11.5 66 3.5 S 11 19 6 10 - - 0.0
24/10:30pm 18.5 17.7 11.8 65 3.7 SSE 7 11 4 6 - - 0.0
24/10:00pm 18.9 18.1 11.0 60 4.4 SSE 6 7 3 4 - - 0.0
24/09:30pm 19.6 18.1 9.2 51 5.6 SSE 7 9 4 5 - - 0.0
24/09:00pm 19.2 18.0 8.2 49 5.8 S 4 7 2 4 - - 0.0
24/08:30pm 19.4 18.6 8.1 48 5.9 S 2 6 1 3 - - 0.0
24/08:00pm 17.1 16.3 9.8 62 3.9 S 4 6 2 3 - - 0.0
24/07:30pm 16.9 16.5 9.8 63 3.8 S 2 6 1 3 - - 0.0
24/07:00pm 18.1 17.4 10.0 59 4.4 E 4 9 2 5 - - 0.0
24/06:30pm 16.8 17.0 10.4 66 3.4 CALM 0 0 0 0 - - 0.0
24/06:00pm 17.7 17.8 10.3 62 4.0 CALM 0 4 0 2 - - 0.0
24/05:30pm 19.2 19.3 10.2 56 4.9 CALM 0 0 0 0 - - 0.0
24/05:00pm 22.9 22.6 10.0 44 7.1 W 2 4 1 2 - - 0.0
24/04:30pm 25.5 24.5 8.9 35 9.1 W 4 7 2 4 - - 0.0
24/04:00pm 26.5 24.5 8.5 32 9.9 WNW 9 17 5 9 - - 0.0
24/03:30pm 26.4 24.1 7.4 30 10.2 WNW 9 19 5 10 - - 0.0
24/03:00pm 27.3 25.7 10.1 34 9.7 NW 9 15 5 8 - - 0.0
24/02:30pm 26.9 25.7 10.2 35 9.5 NW 7 13 4 7 - - 0.0
24/02:00pm 26.5 24.8 9.8 35 9.4 NW 9 15 5 8 - - 0.0
24/01:30pm 26.4 25.0 10.9 38 8.9 NW 9 15 5 8 - - 0.0
24/01:00pm 26.0 24.1 10.6 38 8.7 WNW 11 19 6 10 - - 0.0
24/12:30pm 25.4 23.5 10.4 39 8.5 NW 11 17 6 9 - - 0.0
24/12:00pm 25.4 24.2 11.6 42 7.9 WNW 9 19 5 10 - - 0.0
24/11:30am 24.4 23.4 12.4 47 7.0 WNW 9 15 5 8 - - 0.0
24/11:00am 23.3 22.4 12.6 51 6.2 NW 9 15 5 8 - - 0.0
24/10:30am 22.4 21.5 12.6 54 5.7 NW 9 17 5 9 - - 0.0
24/10:00am 21.5 20.1 12.1 55 5.4 NW 11 19 6 10 - - 0.0
24/09:30am 20.3 18.8 11.8 58 4.8 NW 11 15 6 8 - - 0.0
24/09:00am 19.9 18.9 12.2 61 4.4 NW 9 15 5 8 - - 0.0
24/08:30am 18.6 17.9 12.1 66 3.7 NW 7 13 4 7 - - 0.0
24/08:00am 16.9 16.3 11.8 72 2.8 NNW 6 11 3 6 - - 0.0
24/07:30am 14.7 14.4 11.5 81 1.7 NW 4 7 2 4 - - 0.0
24/07:00am 12.5 12.0 10.6 88 1.0 NW 4 6 2 3 - - 0.0
24/06:30am 12.4 11.6 9.8 84 1.3 NW 4 6 2 3 - - 0.0
24/06:00am 12.8 12.0 9.6 81 1.7 NW 4 7 2 4 - - 0.0
24/05:30am 14.3 13.3 10.3 77 2.1 NW 6 9 3 5 - - 0.0
24/05:00am 13.9 13.0 10.5 80 1.8 NNW 6 11 3 6 - - 0.0
24/04:30am 14.0 13.2 11.0 82 1.6 NNW 6 7 3 4 - - 0.0
24/04:00am 13.5 13.0 10.7 83 1.5 NW 4 7 2 4 - - 0.0
24/03:30am 12.6 12.1 10.7 88 1.0 NW 4 7 2 4 - - 0.0
24/03:00am 12.6 12.1 10.8 89 1.0 NW 4 6 2 3 - - 0.0
24/02:30am 12.9 12.5 11.0 88 1.0 NNW 4 7 2 4 - - 0.0
24/02:00am 12.8 12.2 10.5 86 1.2 NNW 4 7 2 4 - - 0.0
24/01:30am 11.8 10.9 9.2 84 1.3 NW 4 6 2 3 - - 0.0
24/01:00am 12.9 11.7 9.4 79 1.8 NW 6 7 3 4 - - 0.0
24/12:30am 13.3 12.1 9.5 78 2.0 NNW 6 7 3 4 - - 0.0
24/12:00am 13.3 12.0 9.2 76 2.1 NNW 6 6 3 3 - - 0.0
 
Date/Time
EST
Temp
°C
App
Temp
°C
Dew
Point
Rel
Hum
%
Delta-T
°C
Wind Press
QNH
hPa
Press
MSL
hPa
Rain
since 9 am
mm
Dir
 
Spd
km/h
Gust
km/h
Spd
kts
Gust
kts
23/11:30pm 13.9 12.9 8.9 72 2.6 NW 4 6 2 3 - - 0.0
23/11:00pm 17.3 15.3 10.2 63 3.8 NNE 11 19 6 10 - - 0.0
23/10:30pm 16.8 14.7 9.7 63 3.8 NE 11 15 6 8 - - 0.0
23/10:00pm 16.2 15.1 9.8 66 3.4 NE 6 9 3 5 - - 0.0
23/09:30pm 16.7 15.4 10.1 65 3.5 NE 7 13 4 7 - - 0.0
23/09:00pm 16.9 15.8 10.5 66 3.5 NE 7 13 4 7 - - 0.0
23/08:30pm 16.7 15.5 10.3 66 3.4 ENE 7 11 4 6 - - 0.0
23/08:00pm 16.8 15.8 11.1 69 3.1 ENE 7 11 4 6 - - 0.0
23/07:30pm 16.8 15.8 11.1 69 3.1 ENE 7 11 4 6 - - 0.0
23/07:00pm 16.2 15.1 10.5 69 3.1 ENE 7 11 4 6 - - 0.0
23/06:30pm 15.8 14.2 10.3 70 2.9 ENE 9 9 5 5 - - 0.0
23/06:00pm 15.9 14.8 10.0 68 3.1 ENE 6 6 3 3 - - 0.0
23/05:30pm 15.8 15.4 8.3 61 3.9 CALM 0 9 0 5 - - 0.0
23/05:00pm 20.2 20.0 9.2 49 5.9 CALM 0 0 0 0 - - 0.0
23/04:30pm 22.7 21.6 6.9 36 8.3 N 2 4 1 2 - - 0.0
23/04:00pm 23.2 22.3 7.7 37 8.2 NNW 2 6 1 3 - - 0.0
23/03:30pm 23.9 23.2 8.7 38 8.3 WSW 2 7 1 4 - - 0.0
23/03:00pm 24.2 22.3 6.5 32 9.3 W 6 9 3 5 - - 0.0
23/02:30pm 23.8 22.1 7.4 35 8.7 NW 6 9 3 5 - - 0.0
23/02:00pm 23.4 22.4 8.7 39 8.0 W 4 6 2 3 - - 0.0
23/01:30pm 22.6 22.4 10.4 46 6.8 NW 2 7 1 4 - - 0.0
23/01:00pm 22.3 21.7 10.5 47 6.6 NNW 4 7 2 4 - - 0.0
23/12:30pm 22.1 21.7 9.9 46 6.7 NE 2 6 1 3 - - 0.0
23/12:00pm 22.5 21.9 9.0 42 7.3 NNW 2 6 1 3 - - 0.0
23/11:30am 22.3 21.8 10.8 48 6.4 W 4 7 2 4 - - 0.0
23/11:00am 21.4 20.5 9.3 46 6.6 NW 4 7 2 4 - - 0.0
23/10:30am 19.4 18.7 9.9 54 5.1 NW 4 7 2 4 - - 0.0
23/10:00am 18.2 17.2 8.7 54 5.0 NW 4 7 2 4 - - 0.0
23/09:30am 17.5 16.1 8.9 57 4.5 NW 6 7 3 4 - - 0.0
23/09:00am 17.0 15.4 8.7 58 4.3 NW 7 9 4 5 - - 0.0
23/08:30am 16.7 15.3 8.7 59 4.2 WNW 6 7 3 4 - - 0.0
23/08:00am 14.4 12.6 7.9 65 3.3 NW 7 9 4 5 - - 0.0
23/07:30am 13.1 11.3 7.8 70 2.6 NW 7 9 4 5 - - 0.0
23/07:00am 11.5 9.4 6.8 73 2.3 NW 7 9 4 5 - - 0.0
23/06:30am 10.6 8.4 6.4 75 2.0 NW 7 9 4 5 - - 0.0
23/06:00am 10.2 8.0 6.2 76 1.9 NW 7 9 4 5 - - 0.0
23/05:30am 10.0 7.7 5.8 75 2.0 NW 7 9 4 5 - - 0.0
23/05:00am 10.1 8.4 5.7 74 2.1 NW 4 7 2 4 - - 0.0
23/04:30am 9.6 7.4 5.2 74 2.0 NW 6 7 3 4 - - 0.0
23/04:00am 11.8 9.5 5.9 67 2.8 NW 7 9 4 5 - - 0.0
23/03:30am 10.7 8.6 5.9 72 2.3 NW 6 7 3 4 - - 0.0
23/03:00am 12.5 10.3 6.1 65 3.1 NW 7 9 4 5 - - 0.0
23/02:30am 12.8 10.5 5.9 63 3.3 NW 7 9 4 5 - - 0.0
23/02:00am 13.2 11.1 5.9 61 3.5 NW 6 9 3 5 - - 0.0
23/01:30am 12.2 10.0 5.4 63 3.2 NW 6 7 3 4 - - 0.0
23/01:00am 12.9 10.8 5.6 61 3.5 NW 6 7 3 4 - - 0.0
23/12:30am 13.0 10.8 5.2 59 3.7 NW 6 7 3 4 - - 0.0
23/12:00am 13.9 11.8 5.8 58 3.9 NW 6 7 3 4 - - 0.0
 
Date/Time
EST
Temp
°C
App
Temp
°C
Dew
Point
Rel
Hum
%
Delta-T
°C
Wind Press
QNH
hPa
Press
MSL
hPa
Rain
since 9 am
mm
Dir
 
Spd
km/h
Gust
km/h
Spd
kts
Gust
kts
22/11:30pm 13.7 11.6 5.8 59 3.8 NNW 6 7 3 4 - - 0.0
22/11:00pm 13.7 11.6 5.6 58 3.9 NW 6 9 3 5 - - 0.0
22/10:30pm 13.8 11.7 5.7 58 3.9 NW 6 6 3 3 - - 0.0
22/10:00pm 13.4 12.0 5.3 58 3.8 WNW 2 6 1 3 - - 0.0
22/09:30pm 15.1 13.8 6.1 55 4.4 WNW 2 7 1 4 - - 0.0
22/09:00pm 15.3 13.9 5.5 52 4.7 NNW 2 6 1 3 - - 0.0
22/08:30pm 15.7 14.4 6.2 53 4.7 WNW 2 6 1 3 - - 0.0
22/08:00pm 16.6 14.4 5.3 47 5.5 WNW 6 9 3 5 - - 0.0
22/07:30pm 17.1 14.9 5.4 46 5.7 W 6 9 3 5 - - 0.0
22/07:00pm 16.6 14.7 4.9 46 5.6 WNW 4 9 2 5 - - 0.0
22/06:30pm 16.4 14.6 5.4 48 5.4 NW 4 7 2 4 - - 0.0
22/06:00pm 16.2 14.5 5.8 50 5.1 W 4 7 2 4 - - 0.0

Other Formats:

Comma delimited format used in spreadsheet applications
http://www.bom.gov.au/fwo/IDN60801/IDN60801.95774.axf

JavaScript Object Notation format (JSON) in row-major order
http://www.bom.gov.au/fwo/IDN60801/IDN60801.95774.json